Time;durP1;ratioP1;P1;durP2;ratioP2;P2;SDS_P1;SDS_P2;PMS_P1;PMS_P2;Temp;Humidity;BMP_temperature;BMP_pressure;BME280_temperature;BME280_humidity;BME280_pressure;Samples;Min_cycle;Max_cycle;Signal;HPM_P1;HPM_P2
2023/07/06 00:01:22;;;;;;;4.93;2.95;;;18.00;99.90;;;;;;5027754;28;20706;-72
2023/07/06 00:03:48;;;;;;;6.35;2.97;;;18.00;99.90;;;;;;5024394;28;20220;-72
2023/07/06 00:06:15;;;;;;;6.43;3.00;;;18.00;99.90;;;;;;5027029;28;20212;-71
2023/07/06 00:08:41;;;;;;;7.35;2.80;;;17.90;99.90;;;;;;5021074;28;20726;-70
2023/07/06 00:11:06;;;;;;;5.35;2.67;;;17.90;99.90;;;;;;5025272;28;20284;-71
2023/07/06 00:13:32;;;;;;;5.50;2.50;;;17.90;99.90;;;;;;5023605;28;20199;-72
2023/07/06 00:16:01;;;;;;;8.80;2.85;;;17.90;99.90;;;;;;5023758;28;20252;-70
2023/07/06 00:18:27;;;;;;;4.97;2.67;;;17.70;99.90;;;;;;5025758;28;20307;-70
2023/07/06 00:20:53;;;;;;;7.68;2.70;;;17.70;99.90;;;;;;5019563;28;20221;-71
2023/07/06 00:23:20;;;;;;;5.72;2.78;;;17.70;99.90;;;;;;5019528;28;20177;-71
2023/07/06 00:25:47;;;;;;;6.53;2.85;;;17.70;99.90;;;;;;5025316;28;20208;-71
2023/07/06 00:28:13;;;;;;;5.63;2.28;;;17.70;99.90;;;;;;5021665;28;20197;-70
2023/07/06 00:33:13;;;;;;;6.45;2.63;;;17.70;99.90;;;;;;5024227;28;20197;-70
2023/07/06 00:35:40;;;;;;;5.78;3.25;;;17.70;99.90;;;;;;5024629;28;20216;-71
2023/07/06 00:38:10;;;;;;;3.42;2.78;;;17.60;99.90;;;;;;5025499;28;20573;-71
2023/07/06 00:40:39;;;;;;;9.80;2.70;;;17.60;99.90;;;;;;5026527;28;20201;-71
2023/07/06 00:43:06;;;;;;;8.70;3.03;;;17.60;99.90;;;;;;5021209;28;20331;-71
2023/07/06 00:45:33;;;;;;;5.45;2.60;;;17.60;99.90;;;;;;5025045;28;20208;-71
2023/07/06 00:47:59;;;;;;;5.03;3.03;;;17.60;99.90;;;;;;5022902;28;20215;-71
2023/07/06 00:50:29;;;;;;;5.93;2.63;;;17.60;99.90;;;;;;5022701;28;20173;-71
2023/07/06 00:53:06;;;;;;;6.50;2.72;;;17.60;99.90;;;;;;5022514;28;20177;-71
2023/07/06 00:55:36;;;;;;;7.80;3.38;;;17.60;99.90;;;;;;5020529;28;20223;-71
2023/07/06 00:58:18;;;;;;;8.80;3.28;;;17.60;99.90;;;;;;5020563;28;20753;-71
2023/07/06 01:00:46;;;;;;;4.22;2.85;;;17.50;99.90;;;;;;4998730;28;20205;-72
2023/07/06 01:03:12;;;;;;;5.63;2.58;;;17.60;99.90;;;;;;5019395;28;20258;-69
2023/07/06 01:05:40;;;;;;;5.80;2.38;;;17.50;99.90;;;;;;5022557;28;20220;-71
2023/07/06 01:08:13;;;;;;;4.72;2.75;;;17.50;99.90;;;;;;5018173;28;20198;-71
2023/07/06 01:10:39;;;;;;;7.25;2.90;;;17.40;99.90;;;;;;5019483;28;20204;-71
2023/07/06 01:13:07;;;;;;;7.40;2.50;;;17.40;99.90;;;;;;5024496;28;20254;-71
2023/07/06 01:15:41;;;;;;;6.97;2.72;;;17.40;99.90;;;;;;5027419;28;20717;-71
2023/07/06 01:18:15;;;;;;;5.03;2.65;;;17.40;99.90;;;;;;5021670;28;20290;-71
2023/07/06 01:20:47;;;;;;;6.63;2.65;;;17.40;99.90;;;;;;5021768;28;20207;-70
2023/07/06 01:23:30;;;;;;;7.00;2.83;;;17.40;99.90;;;;;;5021743;28;20284;-71
2023/07/06 01:32:08;;;;;;;8.80;2.85;;;17.30;99.90;;;;;;5009494;28;20243;-76
2023/07/06 01:34:47;;;;;;;7.78;2.80;;;17.30;99.90;;;;;;5006933;28;20216;-75
2023/07/06 01:37:34;;;;;;;4.25;2.38;;;17.30;99.90;;;;;;5008115;28;20213;-74
2023/07/06 01:40:01;;;;;;;5.43;2.95;;;17.30;99.90;;;;;;4998178;28;20225;-75
2023/07/06 01:42:31;;;;;;;5.53;2.70;;;17.30;99.90;;;;;;4967074;28;20220;-74
2023/07/06 01:45:04;;;;;;;5.20;2.72;;;17.30;99.90;;;;;;4988648;28;20794;-76
2023/07/06 01:47:34;;;;;;;5.30;2.47;;;17.20;99.90;;;;;;4964209;28;20182;-76
2023/07/06 01:50:02;;;;;;;2.72;2.10;;;17.10;99.90;;;;;;4989457;28;20189;-75
2023/07/06 01:52:46;;;;;;;5.13;3.00;;;17.20;99.90;;;;;;4988089;28;20209;-74
2023/07/06 01:55:35;;;;;;;5.13;3.05;;;17.10;99.90;;;;;;4986377;28;20209;-76
2023/07/06 01:58:26;;;;;;;4.32;2.42;;;17.10;99.90;;;;;;4975574;28;21009;-75
2023/07/06 02:01:02;;;;;;;3.50;2.63;;;17.20;99.90;;;;;;4983865;28;20646;-76
2023/07/06 02:03:29;;;;;;;7.57;3.10;;;17.20;99.90;;;;;;4989730;28;20744;-74
2023/07/06 02:05:55;;;;;;;5.72;2.63;;;17.20;99.90;;;;;;4985129;28;20630;-76
2023/07/06 02:08:23;;;;;;;4.88;3.55;;;17.00;99.90;;;;;;4991468;28;20205;-74
2023/07/06 02:10:50;;;;;;;7.50;3.60;;;17.10;99.90;;;;;;4975188;28;20251;-76
2023/07/06 02:13:16;;;;;;;6.00;3.03;;;17.00;99.90;;;;;;4972487;28;20249;-75
2023/07/06 02:15:43;;;;;;;4.00;2.50;;;16.90;99.90;;;;;;4991456;28;20216;-76
2023/07/06 02:18:09;;;;;;;5.57;2.85;;;16.90;99.90;;;;;;4973535;28;20213;-74
2023/07/06 02:20:34;;;;;;;9.25;3.55;;;16.90;99.90;;;;;;4992005;28;20212;-75
2023/07/06 02:23:00;;;;;;;4.40;2.60;;;17.00;99.90;;;;;;4992640;28;20186;-76
2023/07/06 02:25:26;;;;;;;4.00;2.58;;;17.00;99.90;;;;;;4991539;28;20216;-73
2023/07/06 02:27:52;;;;;;;6.25;3.22;;;16.90;99.90;;;;;;4991364;28;20706;-76
2023/07/06 02:30:17;;;;;;;6.20;3.00;;;16.90;99.90;;;;;;4991500;28;20228;-75
2023/07/06 02:32:43;;;;;;;4.85;3.08;;;16.70;99.90;;;;;;4973448;28;20228;-75
2023/07/06 02:35:10;;;;;;;6.63;3.03;;;16.70;99.90;;;;;;4988795;28;20666;-74
2023/07/06 02:37:38;;;;;;;7.10;4.07;;;16.70;99.90;;;;;;4991038;28;20571;-75
2023/07/06 02:40:07;;;;;;;9.15;4.00;;;16.70;99.90;;;;;;4991710;28;20225;-74
2023/07/06 02:42:34;;;;;;;5.75;3.72;;;16.70;99.90;;;;;;4973832;28;20251;-74
2023/07/06 02:45:00;;;;;;;5.53;3.72;;;16.70;99.90;;;;;;4973825;28;20222;-75
2023/07/06 02:47:26;;;;;;;5.30;3.05;;;16.60;99.90;;;;;;4987743;28;20183;-77
2023/07/06 02:49:51;;;;;;;6.75;3.20;;;16.70;99.90;;;;;;4987610;23;20233;-71
2023/07/06 02:52:17;;;;;;;4.47;2.75;;;16.70;99.90;;;;;;4989493;28;20305;-71
2023/07/06 02:54:43;;;;;;;5.45;3.33;;;16.80;99.90;;;;;;4989274;28;20289;-70
2023/07/06 02:57:08;;;;;;;4.43;3.05;;;16.80;99.90;;;;;;4988138;28;20225;-68
2023/07/06 02:59:34;;;;;;;6.05;3.42;;;16.80;99.90;;;;;;4981388;28;20216;-70
2023/07/06 03:01:59;;;;;;;5.72;3.40;;;16.80;99.90;;;;;;4980193;28;20178;-70
2023/07/06 03:04:27;;;;;;;7.18;3.70;;;16.70;99.90;;;;;;4982735;28;20232;-70
2023/07/06 03:06:55;;;;;;;6.90;3.88;;;16.70;99.90;;;;;;4978923;28;20224;-70
2023/07/06 03:09:21;;;;;;;9.07;3.85;;;16.60;99.90;;;;;;4978759;28;20694;-71
2023/07/06 03:11:48;;;;;;;5.57;3.40;;;16.60;99.90;;;;;;4980706;28;20225;-71
2023/07/06 03:14:14;;;;;;;5.05;3.53;;;16.70;99.90;;;;;;4975364;28;20182;-71
2023/07/06 03:16:39;;;;;;;6.07;3.20;;;16.70;99.90;;;;;;4976420;28;20582;-71
2023/07/06 03:19:10;;;;;;;8.32;4.82;;;16.60;99.90;;;;;;4976676;28;20226;-71
2023/07/06 03:21:40;;;;;;;6.28;4.03;;;16.70;99.90;;;;;;4997505;28;20289;-71
2023/07/06 03:24:07;;;;;;;6.38;3.92;;;16.70;99.90;;;;;;4996503;28;20677;-71
2023/07/06 03:26:34;;;;;;;5.70;3.63;;;16.80;99.90;;;;;;4984735;28;20205;-71
2023/07/06 03:29:03;;;;;;;5.57;3.85;;;16.70;99.90;;;;;;4976897;28;20198;-71
2023/07/06 03:31:30;;;;;;;8.18;3.42;;;16.80;99.90;;;;;;4980908;28;20233;-71
2023/07/06 03:33:59;;;;;;;6.78;3.13;;;17.10;99.90;;;;;;4983241;28;20248;-71
2023/07/06 03:36:25;;;;;;;4.97;3.20;;;18.00;99.90;;;;;;4982425;28;20209;-72
2023/07/06 03:38:51;;;;;;;4.70;3.50;;;18.50;99.90;;;;;;4975090;28;20222;-71
2023/07/06 03:41:17;;;;;;;5.30;3.35;;;19.10;99.90;;;;;;4982194;28;20213;-72
2023/07/06 03:43:44;;;;;;;9.27;3.40;;;19.60;99.90;;;;;;4982855;28;20270;-71
2023/07/06 03:46:10;;;;;;;6.97;3.47;;;19.60;99.90;;;;;;4991212;28;20225;-72
2023/07/06 03:48:36;;;;;;;5.85;3.00;;;20.10;99.90;;;;;;4973460;28;20234;-71
2023/07/06 03:51:05;;;;;;;4.43;2.53;;;20.30;99.90;;;;;;4976595;28;20649;-71
2023/07/06 03:53:31;;;;;;;5.93;3.15;;;20.30;99.90;;;;;;4976265;28;20206;-72
2023/07/06 03:55:58;;;;;;;7.50;3.75;;;20.20;99.90;;;;;;4986734;28;20213;-72
2023/07/06 03:58:24;;;;;;;4.35;3.20;;;20.20;99.90;;;;;;4977215;28;20500;-72
2023/07/06 04:00:50;;;;;;;5.25;3.28;;;20.50;99.90;;;;;;4974687;28;20209;-72
2023/07/06 04:03:15;;;;;;;5.10;2.80;;;20.90;99.90;;;;;;4978931;28;20814;-69
2023/07/06 04:05:47;;;;;;;4.07;3.00;;;21.90;99.90;;;;;;4981438;28;20983;-69
2023/07/06 04:08:17;;;;;;;3.38;2.80;;;22.90;99.90;;;;;;4986076;28;20181;-70
2023/07/06 04:10:43;;;;;;;5.75;3.25;;;23.50;99.90;;;;;;4977667;28;20300;-71
2023/07/06 04:13:10;;;;;;;8.93;5.65;;;24.20;99.90;;;;;;4979675;28;20214;-71
2023/07/06 04:15:39;;;;;;;4.32;3.60;;;24.90;99.90;;;;;;4977139;28;20301;-71
2023/07/06 04:18:05;;;;;;;5.07;3.72;;;25.20;99.90;;;;;;4978447;28;20210;-71
2023/07/06 04:20:34;;;;;;;7.43;4.80;;;25.70;99.90;;;;;;4979176;28;20299;-71
2023/07/06 04:23:00;;;;;;;4.65;3.38;;;26.20;99.90;;;;;;4974536;28;20181;-71
2023/07/06 04:25:31;;;;;;;6.95;3.95;;;26.40;99.90;;;;;;4978453;28;20202;-70
2023/07/06 04:28:06;;;;;;;6.75;4.78;;;26.80;99.90;;;;;;4976221;28;20244;-71
2023/07/06 04:30:40;;;;;;;7.88;4.45;;;27.20;99.90;;;;;;4974836;28;20687;-71
2023/07/06 04:33:09;;;;;;;3.72;3.13;;;27.40;99.90;;;;;;4976275;28;20202;-71
2023/07/06 04:35:35;;;;;;;5.28;2.90;;;27.30;99.90;;;;;;4985045;28;20676;-70
2023/07/06 04:38:01;;;;;;;4.82;2.70;;;27.50;99.90;;;;;;4978333;28;20710;-71
2023/07/06 04:40:28;;;;;;;5.57;2.92;;;27.70;99.90;;;;;;4976223;28;20217;-70
2023/07/06 04:42:54;;;;;;;5.22;3.05;;;28.10;99.90;;;;;;4981600;28;20205;-71
2023/07/06 04:45:24;;;;;;;5.15;2.78;;;28.50;99.90;;;;;;4982402;28;20210;-71
2023/07/06 04:47:51;;;;;;;7.50;3.05;;;29.00;99.90;;;;;;4983533;28;20206;-71
2023/07/06 04:50:22;;;;;;;4.55;3.03;;;28.90;99.90;;;;;;4977480;28;20402;-71
2023/07/06 04:52:55;;;;;;;4.00;2.88;;;27.80;99.90;;;;;;4980239;28;20214;-71
2023/07/06 04:55:24;;;;;;;3.00;2.47;;;26.50;99.90;;;;;;4994843;28;20243;-71
2023/07/06 04:57:52;;;;;;;3.65;2.53;;;27.40;99.90;;;;;;4984252;28;20209;-71
2023/07/06 05:00:24;;;;;;;4.70;2.97;;;28.00;99.90;;;;;;4977651;28;20222;-70
2023/07/06 05:03:00;;;;;;;3.67;2.70;;;28.50;99.90;;;;;;4986330;28;20249;-71
2023/07/06 05:05:36;;;;;;;3.65;2.90;;;28.40;99.90;;;;;;4982854;28;20559;-70
2023/07/06 05:08:02;;;;;;;5.72;3.20;;;28.60;99.90;;;;;;4981684;28;20177;-70
2023/07/06 05:10:28;;;;;;;3.85;2.90;;;28.70;99.90;;;;;;4970737;28;20210;-70
2023/07/06 05:12:55;;;;;;;3.22;2.47;;;28.80;99.90;;;;;;4974143;28;20237;-70
2023/07/06 05:15:22;;;;;;;3.25;2.15;;;29.10;99.90;;;;;;4976100;28;20600;-69
2023/07/06 05:17:48;;;;;;;3.65;2.80;;;29.10;99.90;;;;;;4980042;28;20738;-71
2023/07/06 05:20:14;;;;;;;4.90;2.60;;;29.10;99.40;;;;;;4972938;28;20287;-70
2023/07/06 05:22:43;;;;;;;3.15;2.30;;;30.20;98.70;;;;;;5003264;28;20700;-70
2023/07/06 05:25:10;;;;;;;2.75;2.40;;;29.80;98.00;;;;;;4977661;28;20260;-67
2023/07/06 05:27:36;;;;;;;3.05;2.45;;;29.90;97.80;;;;;;4986885;28;20296;-70
2023/07/06 05:30:03;;;;;;;3.75;2.33;;;29.60;97.30;;;;;;4978417;28;20365;-70
2023/07/06 05:32:29;;;;;;;4.10;2.80;;;29.00;97.70;;;;;;4981705;28;20213;-71
2023/07/06 05:34:54;;;;;;;4.72;2.88;;;28.10;99.30;;;;;;4986548;28;20200;-71
2023/07/06 05:37:20;;;;;;;3.20;2.30;;;28.60;99.30;;;;;;4982177;28;20210;-71
2023/07/06 05:39:47;;;;;;;3.63;2.30;;;29.40;97.80;;;;;;4984414;28;20620;-71
2023/07/06 05:42:13;;;;;;;3.65;2.25;;;29.90;97.30;;;;;;4985669;28;20233;-71
2023/07/06 05:44:39;;;;;;;2.95;1.95;;;30.20;96.40;;;;;;4987659;28;20566;-71
2023/07/06 05:47:07;;;;;;;5.30;2.50;;;30.20;95.70;;;;;;4985234;28;20181;-71
2023/07/06 05:49:33;;;;;;;3.97;2.13;;;30.10;95.90;;;;;;4985352;28;20223;-71
2023/07/06 05:51:59;;;;;;;4.20;2.42;;;30.50;95.20;;;;;;4974568;28;20703;-71
2023/07/06 05:54:24;;;;;;;4.78;2.20;;;30.80;94.70;;;;;;4981627;28;20221;-71
2023/07/06 05:56:50;;;;;;;2.60;2.30;;;30.80;94.00;;;;;;4984557;28;20220;-71
2023/07/06 05:59:16;;;;;;;4.40;2.25;;;30.60;94.10;;;;;;4987514;28;20201;-71
2023/07/06 06:01:42;;;;;;;5.53;2.70;;;31.20;93.80;;;;;;4992111;28;20553;-72
2023/07/06 06:04:08;;;;;;;4.38;2.22;;;31.70;92.90;;;;;;4981343;28;20216;-71
2023/07/06 06:06:54;;;;;;;5.10;2.08;;;31.70;92.00;;;;;;4978686;28;20224;-71
2023/07/06 06:09:21;;;;;;;3.53;2.03;;;31.50;91.60;;;;;;4988440;28;20260;-72
2023/07/06 06:11:48;;;;;;;4.22;2.50;;;31.10;91.20;;;;;;4990172;28;20710;-71
2023/07/06 06:14:13;;;;;;;3.35;2.28;;;30.80;91.50;;;;;;4987251;28;20693;-71
2023/07/06 06:16:40;;;;;;;3.83;2.53;;;30.90;91.50;;;;;;4988781;28;20173;-71
2023/07/06 06:19:06;;;;;;;4.45;2.15;;;31.20;91.30;;;;;;4986205;28;20209;-71
2023/07/06 06:21:33;;;;;;;5.50;2.13;;;31.30;90.60;;;;;;4986492;28;20224;-71
2023/07/06 06:24:00;;;;;;;4.13;2.30;;;31.60;90.00;;;;;;4976436;28;20218;-72
2023/07/06 06:26:26;;;;;;;2.75;2.13;;;31.90;88.90;;;;;;4980431;28;20311;-71
2023/07/06 06:28:52;;;;;;;3.85;1.98;;;32.40;88.30;;;;;;4978656;28;20197;-70
2023/07/06 06:31:17;;;;;;;2.40;2.10;;;32.30;86.30;;;;;;4976625;28;20582;-72
2023/07/06 06:33:46;;;;;;;5.28;2.45;;;31.90;86.80;;;;;;4977180;28;20562;-72
2023/07/06 06:36:13;;;;;;;3.63;1.88;;;32.70;86.70;;;;;;4980821;28;20221;-71
2023/07/06 06:38:39;;;;;;;3.05;2.40;;;32.60;85.40;;;;;;4981793;28;20220;-71
2023/07/06 06:41:08;;;;;;;4.65;2.47;;;32.50;85.10;;;;;;4987673;28;20188;-72
2023/07/06 06:43:38;;;;;;;4.20;2.17;;;33.00;83.70;;;;;;4989945;28;20209;-70
2023/07/06 06:46:05;;;;;;;3.22;2.00;;;33.40;82.50;;;;;;4987044;28;20301;-71
2023/07/06 06:48:32;;;;;;;3.25;2.00;;;33.90;80.10;;;;;;4983292;28;20239;-71
2023/07/06 06:50:58;;;;;;;2.33;1.95;;;33.90;77.80;;;;;;4988699;28;20240;-71
2023/07/06 06:53:26;;;;;;;3.97;1.95;;;34.30;77.20;;;;;;4977425;28;20185;-71
2023/07/06 06:55:52;;;;;;;2.65;1.90;;;34.30;76.00;;;;;;4985197;28;20174;-71
2023/07/06 06:58:20;;;;;;;2.60;1.90;;;34.20;75.80;;;;;;4984269;28;20296;-71
2023/07/06 07:00:47;;;;;;;3.25;1.75;;;34.50;74.20;;;;;;4979620;28;20297;-71
2023/07/06 07:03:13;;;;;;;2.30;1.73;;;34.40;74.70;;;;;;4982992;28;20225;-70
2023/07/06 07:05:40;;;;;;;5.18;1.90;;;33.90;74.10;;;;;;4988411;28;20208;-71
2023/07/06 07:08:06;;;;;;;3.58;1.90;;;33.70;75.60;;;;;;4983450;28;20294;-71
2023/07/06 07:10:32;;;;;;;2.38;2.08;;;34.40;74.70;;;;;;4983911;28;20220;-71
2023/07/06 07:12:58;;;;;;;3.22;1.80;;;34.30;74.30;;;;;;4982066;28;20704;-72
2023/07/06 07:15:24;;;;;;;2.85;1.83;;;34.60;73.30;;;;;;4976824;28;20252;-71
2023/07/06 07:17:51;;;;;;;2.45;1.75;;;35.10;71.70;;;;;;4975219;28;20573;-72
2023/07/06 07:20:18;;;;;;;2.03;1.75;;;34.70;72.50;;;;;;4975844;28;20244;-71
2023/07/06 07:22:45;;;;;;;2.03;1.65;;;34.90;71.40;;;;;;4983213;28;20197;-72
2023/07/06 07:25:11;;;;;;;2.42;1.83;;;35.30;69.60;;;;;;4989041;28;20217;-72
2023/07/06 07:27:37;;;;;;;1.95;1.60;;;35.70;68.40;;;;;;4989118;28;20295;-72
2023/07/06 07:30:06;;;;;;;2.72;1.70;;;35.70;68.70;;;;;;4980486;28;20295;-72
2023/07/06 07:32:32;;;;;;;2.78;2.00;;;35.40;67.80;;;;;;4987148;28;21537;-71
2023/07/06 07:34:58;;;;;;;2.80;2.00;;;35.40;67.20;;;;;;4989375;28;20673;-70
2023/07/06 07:37:25;;;;;;;3.63;1.60;;;35.20;66.50;;;;;;4984875;28;20790;-72
2023/07/06 07:39:51;;;;;;;2.28;1.50;;;35.00;67.00;;;;;;4986252;28;20224;-72
2023/07/06 07:42:18;;;;;;;1.77;1.65;;;35.30;66.50;;;;;;4973909;28;20603;-72
2023/07/06 07:44:47;;;;;;;2.75;1.27;;;34.70;66.20;;;;;;4985358;28;20217;-72
2023/07/06 07:47:18;;;;;;;1.92;1.40;;;35.20;66.20;;;;;;4982123;28;20174;-71
2023/07/06 07:49:45;;;;;;;2.20;1.80;;;35.40;65.90;;;;;;4984479;28;20309;-71
2023/07/06 07:52:12;;;;;;;2.58;1.70;;;35.30;65.40;;;;;;4980514;28;20237;-70
2023/07/06 07:54:43;;;;;;;3.72;1.52;;;35.10;65.60;;;;;;4982048;28;20209;-72
2023/07/06 07:57:09;;;;;;;3.80;1.50;;;35.10;65.70;;;;;;4982835;28;20263;-71
2023/07/06 07:59:35;;;;;;;2.22;1.60;;;34.30;65.90;;;;;;4974776;28;20213;-72
2023/07/06 08:02:01;;;;;;;2.33;1.73;;;33.90;67.90;;;;;;4989962;28;20185;-72
2023/07/06 08:04:27;;;;;;;4.28;1.67;;;33.70;68.10;;;;;;4988473;28;20323;-72
2023/07/06 08:06:53;;;;;;;3.70;1.75;;;34.20;67.70;;;;;;4986958;28;20263;-72
2023/07/06 08:09:18;;;;;;;1.52;1.33;;;34.60;66.40;;;;;;4980506;28;20275;-72
2023/07/06 08:11:46;;;;;;;3.17;1.52;;;34.50;66.80;;;;;;4987141;28;20233;-71
2023/07/06 08:14:13;;;;;;;3.38;1.83;;;34.90;66.90;;;;;;4986102;28;20185;-72
2023/07/06 08:16:42;;;;;;;2.67;1.70;;;34.50;66.30;;;;;;4983939;28;20209;-72
2023/07/06 08:19:08;;;;;;;2.95;1.83;;;33.90;67.20;;;;;;4984299;28;20224;-71
2023/07/06 08:21:34;;;;;;;2.63;1.80;;;33.40;67.00;;;;;;4984845;28;20753;-72
2023/07/06 08:24:00;;;;;;;3.03;1.63;;;33.80;67.20;;;;;;4984559;28;20215;-72
2023/07/06 08:26:29;;;;;;;2.75;1.60;;;33.90;67.50;;;;;;4982476;28;20695;-71
2023/07/06 08:28:55;;;;;;;2.03;1.70;;;33.60;67.10;;;;;;4983573;28;20201;-72
2023/07/06 08:31:21;;;;;;;3.25;1.90;;;32.50;68.50;;;;;;4982995;28;20218;-71
2023/07/06 08:33:48;;;;;;;2.47;2.00;;;31.20;70.80;;;;;;4982694;28;20217;-71
2023/07/06 08:36:20;;;;;;;2.10;1.70;;;29.40;74.30;;;;;;4978555;28;20566;-70
2023/07/06 08:38:46;;;;;;;2.35;1.30;;;28.90;76.40;;;;;;4981771;28;20717;-71
2023/07/06 08:41:30;;;;;;;2.50;1.50;;;30.10;75.90;;;;;;4982400;28;20191;-72
2023/07/06 08:44:04;;;;;;;3.17;1.83;;;31.40;72.40;;;;;;4986546;28;20268;-71
2023/07/06 08:46:34;;;;;;;2.58;1.83;;;32.30;70.70;;;;;;4986954;28;20639;-72
2023/07/06 08:49:00;;;;;;;1.95;1.65;;;32.50;70.70;;;;;;4987183;28;20236;-71
2023/07/06 08:51:34;;;;;;;5.30;2.65;;;32.70;69.50;;;;;;5039859;23;20276;-74
2023/07/06 08:54:02;;;;;;;3.83;1.95;;;32.50;70.20;;;;;;5023132;28;20203;-74
2023/07/06 08:56:34;;;;;;;3.00;1.63;;;33.10;70.10;;;;;;5038732;28;20733;-73
2023/07/06 08:59:04;;;;;;;2.83;1.63;;;32.10;69.90;;;;;;5017475;28;20198;-75
2023/07/06 09:01:31;;;;;;;3.17;1.65;;;31.20;71.90;;;;;;5004370;28;20221;-75
2023/07/06 09:04:06;;;;;;;2.80;1.50;;;31.40;73.40;;;;;;5003728;28;20586;-74
2023/07/06 09:06:33;;;;;;;1.80;1.65;;;31.90;72.00;;;;;;5002144;28;20733;-74
2023/07/06 09:09:01;;;;;;;2.58;1.25;;;32.30;71.00;;;;;;5003517;28;20224;-75
2023/07/06 09:11:27;;;;;;;3.08;1.35;;;32.50;70.70;;;;;;4999847;28;20210;-74
2023/07/06 09:13:55;;;;;;;2.35;1.40;;;32.60;70.40;;;;;;5000636;28;20181;-74
2023/07/06 09:16:22;;;;;;;2.97;1.10;;;32.50;70.10;;;;;;4998432;28;20293;-74
2023/07/06 09:18:49;;;;;;;4.07;1.85;;;32.40;70.00;;;;;;5006432;28;20204;-72
2023/07/06 09:21:17;;;;;;;4.15;1.80;;;32.70;69.90;;;;;;5006272;28;20224;-74
2023/07/06 09:23:47;;;;;;;3.38;2.22;;;33.00;69.30;;;;;;5000744;28;20220;-75
2023/07/06 09:26:38;;;;;;;2.22;1.70;;;32.80;69.20;;;;;;5007998;28;20274;-75
2023/07/06 09:29:29;;;;;;;3.15;2.00;;;32.40;69.90;;;;;;5006318;28;20323;-75
2023/07/06 09:32:16;;;;;;;4.45;1.98;;;31.20;71.80;;;;;;5005437;28;20224;-72
2023/07/06 09:34:44;;;;;;;2.78;1.95;;;30.40;73.20;;;;;;5000835;28;20236;-74
2023/07/06 09:37:20;;;;;;;3.03;2.40;;;30.50;74.70;;;;;;5002732;28;20220;-74
2023/07/06 09:40:04;;;;;;;2.03;1.60;;;30.80;74.80;;;;;;4997927;28;20589;-74
2023/07/06 09:42:31;;;;;;;4.20;1.73;;;31.00;73.30;;;;;;4996711;28;20216;-74
2023/07/06 09:44:58;;;;;;;2.88;1.50;;;31.00;73.30;;;;;;5003325;28;20288;-74
2023/07/06 09:47:24;;;;;;;4.13;2.03;;;29.90;74.50;;;;;;5015002;28;20268;-74
2023/07/06 09:50:28;;;;;;;3.78;1.50;;;29.00;76.40;;;;;;5002593;28;20265;-74
2023/07/06 09:52:56;;;;;;;2.10;1.90;;;28.40;77.90;;;;;;4979920;28;20225;-75
2023/07/06 09:55:29;;;;;;;1.73;1.35;;;28.40;78.90;;;;;;4967322;28;20833;-74
2023/07/06 09:57:56;;;;;;;2.10;1.65;;;28.70;79.20;;;;;;4986799;28;20217;-74
2023/07/06 10:00:29;;;;;;;3.45;1.73;;;28.60;78.20;;;;;;4999981;28;20300;-74
2023/07/06 10:03:13;;;;;;;3.20;1.65;;;28.40;79.10;;;;;;4996888;28;20233;-73
2023/07/06 10:05:48;;;;;;;19.40;13.27;;;28.30;79.90;;;;;;5006538;28;20339;-74
2023/07/06 10:08:31;;;;;;;5.10;2.38;;;27.80;80.90;;;;;;5000598;28;20319;-74
2023/07/06 10:11:22;;;;;;;3.67;2.42;;;27.60;81.90;;;;;;5004465;28;20643;-74
2023/07/06 10:13:57;;;;;;;1.75;1.55;;;27.60;81.30;;;;;;5004282;28;20220;-73
2023/07/06 10:16:28;;;;;;;3.90;2.33;;;27.40;81.20;;;;;;5003202;28;20212;-73
2023/07/06 10:19:25;;;;;;;2.88;1.65;;;27.50;81.10;;;;;;5004045;28;20212;-74
2023/07/06 10:22:09;;;;;;;3.88;1.98;;;27.30;82.10;;;;;;5004315;28;20209;-74
2023/07/06 10:24:54;;;;;;;1.73;1.50;;;27.40;81.90;;;;;;5001989;28;20209;-75
2023/07/06 10:27:26;;;;;;;3.60;2.47;;;27.30;81.30;;;;;;5018279;28;20222;-74
2023/07/06 10:29:57;;;;;;;1.95;1.40;;;27.10;82.10;;;;;;5007678;28;20275;-75
2023/07/06 10:32:28;;;;;;;3.63;1.95;;;26.40;83.20;;;;;;4999142;28;20201;-74
2023/07/06 10:34:56;;;;;;;3.85;1.98;;;26.20;84.40;;;;;;5004475;28;20184;-75
2023/07/06 10:37:24;;;;;;;2.15;1.55;;;26.40;85.50;;;;;;5015610;28;20292;-74
2023/07/06 10:40:23;;;;;;;1.98;1.50;;;26.90;84.70;;;;;;5003408;28;20209;-75
2023/07/06 10:43:13;;;;;;;2.70;1.77;;;27.10;84.60;;;;;;5003878;28;20244;-76
2023/07/06 10:45:42;;;;;;;1.98;1.30;;;27.50;84.40;;;;;;5021650;28;20209;-75
2023/07/06 10:48:30;;;;;;;2.42;1.67;;;27.70;83.10;;;;;;4999826;28;20205;-75
2023/07/06 10:51:25;;;;;;;1.55;1.45;;;27.90;82.20;;;;;;5004197;28;20715;-75
2023/07/06 10:54:12;;;;;;;4.30;1.48;;;27.80;82.30;;;;;;5006979;28;20287;-75
2023/07/06 10:56:45;;;;;;;3.53;2.05;;;27.60;82.30;;;;;;5022204;28;20211;-75
2023/07/06 10:59:21;;;;;;;2.70;1.92;;;27.00;84.20;;;;;;5008052;28;20173;-76
2023/07/06 11:01:47;;;;;;;2.30;1.75;;;26.90;85.20;;;;;;5005796;28;20212;-75
2023/07/06 11:04:39;;;;;;;1.92;1.60;;;26.90;85.20;;;;;;5004787;28;20262;-76
2023/07/06 11:07:09;;;;;;;2.83;1.63;;;26.50;84.80;;;;;;5021196;28;20216;-76
2023/07/06 11:10:14;;;;;;;3.63;1.70;;;26.30;85.40;;;;;;5007358;28;20216;-74
2023/07/06 11:12:54;;;;;;;2.45;1.30;;;25.90;85.90;;;;;;5017724;28;20213;-75
2023/07/06 11:15:25;;;;;;;3.17;1.80;;;25.90;85.90;;;;;;5019342;28;20216;-74
2023/07/06 11:17:54;;;;;;;2.22;1.75;;;26.00;86.30;;;;;;5003212;28;20216;-74
2023/07/06 11:20:26;;;;;;;2.28;1.67;;;26.40;85.90;;;;;;5022252;28;20205;-74
2023/07/06 11:22:57;;;;;;;2.67;1.70;;;26.40;85.60;;;;;;5006609;28;20216;-74
2023/07/06 11:25:29;;;;;;;2.45;1.80;;;26.50;86.40;;;;;;5002557;28;20236;-74
2023/07/06 11:28:07;;;;;;;2.53;1.38;;;26.40;86.90;;;;;;5005553;28;20232;-74
2023/07/06 11:30:49;;;;;;;3.70;1.95;;;26.40;86.80;;;;;;5006027;28;20213;-76
2023/07/06 11:33:24;;;;;;;2.55;1.70;;;26.40;86.80;;;;;;5022152;28;20989;-76
2023/07/06 11:35:58;;;;;;;3.03;1.42;;;26.50;88.10;;;;;;5003690;28;20303;-75
2023/07/06 11:39:00;;;;;;;3.33;1.92;;;26.30;87.60;;;;;;5019130;28;20196;-74
2023/07/06 11:41:41;;;;;;;2.85;1.70;;;26.30;87.60;;;;;;5002694;28;20292;-74
2023/07/06 11:44:18;;;;;;;2.05;1.55;;;26.00;88.20;;;;;;5003155;28;20177;-75
2023/07/06 11:46:54;;;;;;;2.55;1.48;;;25.80;88.60;;;;;;5002134;28;20283;-74
2023/07/06 11:49:43;;;;;;;7.15;2.33;;;25.70;89.00;;;;;;4998702;28;20832;-74
2023/07/06 11:52:15;;;;;;;2.38;1.90;;;25.70;89.10;;;;;;5006400;28;20720;-75
2023/07/06 11:54:51;;;;;;;6.82;1.50;;;25.50;89.50;;;;;;5001931;28;20216;-74
2023/07/06 11:57:29;;;;;;;3.58;1.65;;;25.40;89.80;;;;;;5014026;28;20219;-74
2023/07/06 12:02:47;;;;;;;2.13;1.50;;;25.20;90.00;;;;;;5005711;28;20214;-74
2023/07/06 12:05:33;;;;;;;2.60;1.75;;;25.20;90.00;;;;;;4998691;28;20955;-75
2023/07/06 12:08:01;;;;;;;3.92;1.80;;;25.50;90.30;;;;;;4993880;28;20188;-74
2023/07/06 12:10:33;;;;;;;3.47;1.80;;;25.70;89.50;;;;;;5000272;28;20254;-74
2023/07/06 12:12:59;;;;;;;2.13;1.73;;;26.10;89.20;;;;;;5005391;28;20233;-76
2023/07/06 12:15:25;;;;;;;2.97;1.77;;;26.40;89.00;;;;;;5004847;28;20267;-74
2023/07/06 12:17:57;;;;;;;3.33;1.63;;;26.70;88.10;;;;;;5004373;28;20596;-75
2023/07/06 12:20:25;;;;;;;1.95;1.63;;;26.60;88.00;;;;;;5003204;28;20769;-74
2023/07/06 12:22:59;;;;;;;3.95;2.05;;;26.70;88.00;;;;;;5004781;28;20651;-76
2023/07/06 12:25:30;;;;;;;6.63;4.47;;;26.50;87.20;;;;;;5001139;28;20223;-75
2023/07/06 12:28:00;;;;;;;4.43;3.00;;;26.40;88.30;;;;;;5002511;28;20267;-76
2023/07/06 12:30:33;;;;;;;4.53;2.40;;;26.40;88.00;;;;;;4998894;28;20873;-75
2023/07/06 12:33:10;;;;;;;5.45;3.67;;;26.10;87.80;;;;;;5001802;28;20217;-76
2023/07/06 12:35:37;;;;;;;3.25;2.10;;;26.10;88.60;;;;;;5000509;28;20217;-75
2023/07/06 12:38:09;;;;;;;2.08;1.85;;;26.10;88.30;;;;;;5000658;28;20193;-75
2023/07/06 12:40:35;;;;;;;3.28;1.73;;;25.50;88.50;;;;;;5003277;28;20221;-74
2023/07/06 12:43:03;;;;;;;2.50;1.63;;;25.50;89.60;;;;;;5004600;28;20217;-75
2023/07/06 12:45:30;;;;;;;1.90;1.58;;;25.50;89.20;;;;;;4999904;28;20220;-75
2023/07/06 12:48:04;;;;;;;3.30;1.85;;;25.40;89.30;;;;;;5004310;28;20241;-75
2023/07/06 12:50:37;;;;;;;4.72;1.50;;;25.30;88.50;;;;;;5002458;28;20230;-75
2023/07/06 12:53:12;;;;;;;1.58;1.42;;;25.10;87.90;;;;;;5001422;28;20282;-76
2023/07/06 12:55:41;;;;;;;2.45;1.85;;;25.10;87.70;;;;;;5001926;28;20362;-75
2023/07/06 12:58:29;;;;;;;4.38;1.60;;;25.30;86.30;;;;;;5001105;28;20208;-75
2023/07/06 13:01:09;;;;;;;2.00;1.80;;;25.40;86.40;;;;;;5014453;28;20213;-75
2023/07/06 13:03:52;;;;;;;2.78;2.20;;;25.60;85.70;;;;;;4999025;28;20210;-75
2023/07/06 13:06:20;;;;;;;4.25;3.00;;;25.70;86.00;;;;;;5004687;28;20208;-74
2023/07/06 13:08:47;;;;;;;2.70;1.88;;;25.80;86.10;;;;;;5000691;28;20233;-76
2023/07/06 13:11:16;;;;;;;2.78;1.60;;;25.70;85.70;;;;;;5006019;28;20308;-74
2023/07/06 13:13:42;;;;;;;2.88;1.73;;;25.90;85.50;;;;;;5000664;28;20209;-73
2023/07/06 13:16:13;;;;;;;4.18;2.65;;;25.90;83.70;;;;;;5001598;28;20232;-75